createdAt,value
2022-08-03T00:00:45.346Z,100499.41
2022-08-03T00:03:13.854Z,100493.38
2022-08-03T00:06:03.891Z,100498.69
2022-08-03T00:08:30.692Z,100492.38
2022-08-03T00:10:59.680Z,100486.00
2022-08-03T00:13:27.994Z,100484.31
2022-08-03T00:15:56.328Z,100491.22
2022-08-03T00:18:24.424Z,100498.53
2022-08-03T00:20:52.404Z,100489.97
2022-08-03T00:23:20.671Z,100492.16
2022-08-03T00:25:48.525Z,100478.16
2022-08-03T00:28:16.741Z,100485.50
2022-08-03T00:30:44.872Z,100481.06
2022-08-03T00:33:12.848Z,100483.75
2022-08-03T00:35:50.343Z,100476.78
2022-08-03T00:38:20.220Z,100485.97
2022-08-03T00:40:48.136Z,100478.06
2022-08-03T00:43:16.620Z,100483.53
2022-08-03T00:45:44.918Z,100470.13
2022-08-03T00:48:29.671Z,100482.53
2022-08-03T00:51:01.524Z,100484.31
2022-08-03T00:53:29.758Z,100482.44
2022-08-03T00:55:58.220Z,100487.25
2022-08-03T00:58:26.492Z,100477.78
2022-08-03T01:00:54.453Z,100473.22
2022-08-03T01:03:22.303Z,100472.91
2022-08-03T01:05:56.771Z,100486.06
2022-08-03T01:08:58.957Z,100485.41
2022-08-03T01:11:35.764Z,100478.56
2022-08-03T01:14:38.936Z,100480.09
2022-08-03T01:17:34.441Z,100486.94
2022-08-03T01:20:11.212Z,100487.69
2022-08-03T01:22:55.155Z,100487.56
2022-08-03T01:25:37.795Z,100490.38
2022-08-03T01:28:09.059Z,100495.69
2022-08-03T01:30:43.892Z,100489.53
2022-08-03T01:33:28.581Z,100493.81
2022-08-03T01:36:04.473Z,100496.06
2022-08-03T01:38:36.110Z,100491.63
2022-08-03T01:41:08.998Z,100487.78
2022-08-03T01:43:55.108Z,100495.47
2022-08-03T01:46:31.588Z,100485.69
2022-08-03T01:49:09.381Z,100494.31
2022-08-03T01:51:56.100Z,100485.31
2022-08-03T01:54:32.871Z,100477.16
2022-08-03T01:57:03.017Z,100484.50
2022-08-03T01:59:34.777Z,100480.66
2022-08-03T02:02:32.270Z,100474.66
2022-08-03T02:04:57.856Z,100475.97
2022-08-03T02:07:28.105Z,100477.47
2022-08-03T02:09:58.614Z,100478.66
2022-08-03T02:12:30.398Z,100480.75
2022-08-03T02:15:00.917Z,100476.44
2022-08-03T02:17:38.938Z,100477.72
2022-08-03T02:20:13.539Z,100481.69
2022-08-03T02:22:43.364Z,100478.63
2022-08-03T02:25:15.626Z,100473.50
2022-08-03T02:27:52.854Z,100479.44
2022-08-03T02:30:25.321Z,100480.72
2022-08-03T02:32:57.963Z,100475.81
2022-08-03T02:35:28.725Z,100476.53
2022-08-03T02:38:01.254Z,100473.16
2022-08-03T02:40:31.442Z,100475.25
2022-08-03T02:43:03.926Z,100470.34
2022-08-03T02:45:33.464Z,100481.06
2022-08-03T02:48:04.266Z,100473.94
2022-08-03T02:50:35.278Z,100475.91
2022-08-03T02:53:04.582Z,100473.22
2022-08-03T02:55:35.805Z,100471.81
2022-08-03T02:58:13.385Z,100458.50
2022-08-03T03:00:45.100Z,100474.13
2022-08-03T03:03:14.309Z,100475.62
2022-08-03T03:05:54.865Z,100465.62
2022-08-03T03:08:26.190Z,100480.94
2022-08-03T03:11:00.214Z,100477.69
2022-08-03T03:13:30.407Z,100476.66
2022-08-03T03:16:04.290Z,100459.50
2022-08-03T03:18:33.810Z,100482.47
2022-08-03T03:21:04.259Z,100486.50
2022-08-03T03:23:35.508Z,100486.28
2022-08-03T03:26:04.984Z,100488.94
2022-08-03T03:28:33.624Z,100493.03
2022-08-03T03:31:01.944Z,100489.06
2022-08-03T03:33:30.479Z,100495.81
2022-08-03T03:35:59.078Z,100483.53
2022-08-03T03:38:27.603Z,100484.34
2022-08-03T03:40:56.147Z,100489.84
2022-08-03T03:43:24.967Z,100500.12
2022-08-03T03:45:55.081Z,100504.44
2022-08-03T03:48:25.140Z,100503.03
2022-08-03T03:50:53.534Z,100508.37
2022-08-03T03:53:21.506Z,100506.06
2022-08-03T03:55:59.221Z,100506.66
2022-08-03T03:58:31.798Z,100514.31
2022-08-03T04:01:00.953Z,100497.87
2022-08-03T04:03:29.449Z,100508.34
2022-08-03T04:06:16.346Z,100495.63
2022-08-03T04:09:03.832Z,100510.19
2022-08-03T04:11:34.575Z,100508.09
2022-08-03T04:14:08.038Z,100515.13
2022-08-03T04:16:43.693Z,100510.59
2022-08-03T04:19:22.913Z,100510.16
2022-08-03T04:21:56.972Z,100521.72
2022-08-03T04:24:30.723Z,100523.62
2022-08-03T04:27:00.999Z,100510.34
2022-08-03T04:29:33.275Z,100523.66
2022-08-03T04:32:01.596Z,100527.06
2022-08-03T04:34:31.780Z,100533.97
2022-08-03T04:37:03.176Z,100532.13
2022-08-03T04:39:33.078Z,100530.56
2022-08-03T04:42:08.698Z,100527.97
2022-08-03T04:44:40.648Z,100523.53
2022-08-03T04:47:09.131Z,100527.69
2022-08-03T04:49:38.922Z,100522.47
2022-08-03T04:52:08.864Z,100529.66
2022-08-03T04:54:50.036Z,100527.22
2022-08-03T04:57:23.296Z,100540.94
2022-08-03T05:00:02.038Z,100532.97
2022-08-03T05:02:32.338Z,100534.25
2022-08-03T05:05:00.970Z,100535.84
2022-08-03T05:07:35.508Z,100536.47
2022-08-03T05:10:15.894Z,100536.75
2022-08-03T05:12:46.486Z,100520.41
2022-08-03T05:15:15.331Z,100538.59
2022-08-03T05:17:43.287Z,100540.31
2022-08-03T05:20:12.076Z,100539.19
2022-08-03T05:22:40.566Z,100545.09
2022-08-03T05:25:08.675Z,100554.19
2022-08-03T05:27:36.755Z,100531.28
2022-08-03T05:30:26.758Z,100554.47
2022-08-03T05:32:53.927Z,100547.16
2022-08-03T05:36:00.651Z,100550.19
2022-08-03T05:38:10.286Z,100556.28
2022-08-03T05:40:39.511Z,100557.94
2022-08-03T05:43:24.900Z,100561.41
2022-08-03T05:46:12.107Z,100560.97
2022-08-03T05:48:42.110Z,100556.69
2022-08-03T05:51:11.856Z,100548.56
2022-08-03T05:53:41.402Z,100549.94
2022-08-03T05:56:13.875Z,100563.75
2022-08-03T05:58:48.787Z,100561.91
2022-08-03T06:01:17.453Z,100564.84
2022-08-03T06:03:46.250Z,100560.00
2022-08-03T06:06:14.446Z,100564.84
2022-08-03T06:08:43.821Z,100569.19
2022-08-03T06:11:12.814Z,100574.59
2022-08-03T06:13:41.408Z,100574.59
2022-08-03T06:16:09.359Z,100576.78
2022-08-03T06:18:38.628Z,100579.47
2022-08-03T06:21:15.551Z,100581.34
2022-08-03T06:23:53.196Z,100579.66
2022-08-03T06:26:27.905Z,100584.56
2022-08-03T06:28:56.816Z,100588.03
2022-08-03T06:31:33.027Z,100582.84
2022-08-03T06:34:34.225Z,100584.38
2022-08-03T06:36:52.253Z,100589.50
2022-08-03T06:39:23.676Z,100584.41
2022-08-03T06:41:53.676Z,100580.44
2022-08-03T06:44:24.693Z,100594.94
2022-08-03T06:46:53.137Z,100594.81
2022-08-03T06:49:21.589Z,100597.81
2022-08-03T06:52:05.506Z,100597.38
2022-08-03T06:54:35.981Z,100596.91
2022-08-03T06:57:04.599Z,100601.22
2022-08-03T07:00:10.828Z,100599.66
2022-08-03T07:02:21.674Z,100597.72
2022-08-03T07:04:50.046Z,100599.69
2022-08-03T07:07:19.479Z,100595.34
2022-08-03T07:09:56.835Z,100594.56
2022-08-03T07:12:29.999Z,100588.41
2022-08-03T07:15:02.525Z,100599.00
2022-08-03T07:17:34.103Z,100590.06
2022-08-03T07:20:07.192Z,100584.78
2022-08-03T07:22:36.376Z,100598.38
2022-08-03T07:25:05.192Z,100598.69
2022-08-03T07:27:35.796Z,100598.81
2022-08-03T07:30:08.010Z,100601.34
2022-08-03T07:32:36.279Z,100604.41
2022-08-03T07:35:24.289Z,100596.16
2022-08-03T07:37:55.130Z,100601.84
2022-08-03T07:40:25.120Z,100593.22
2022-08-03T07:42:59.719Z,100596.47
2022-08-03T07:45:27.689Z,100603.41
2022-08-03T07:47:55.649Z,100605.09
2022-08-03T07:50:24.046Z,100600.59
2022-08-03T07:52:53.709Z,100596.84
2022-08-03T07:55:25.367Z,100603.53
2022-08-03T07:58:09.419Z,100599.06
2022-08-03T08:00:37.330Z,100598.16
2022-08-03T08:03:05.832Z,100580.50
2022-08-03T08:05:34.550Z,100590.00
2022-08-03T08:08:03.489Z,100592.19
2022-08-03T08:10:32.931Z,100583.69
2022-08-03T08:13:01.836Z,100582.91
2022-08-03T08:15:32.300Z,100596.34
2022-08-03T08:18:02.874Z,100597.97
2022-08-03T08:20:38.232Z,100587.09
2022-08-03T08:23:37.032Z,100605.25
2022-08-03T08:26:00.624Z,100596.00
2022-08-03T08:28:33.537Z,100601.12
2022-08-03T08:31:02.457Z,100602.84
2022-08-03T08:36:20.497Z,100601.75
2022-08-03T08:38:48.810Z,100590.34
2022-08-03T08:41:16.958Z,100594.75
2022-08-03T08:43:44.934Z,100596.47
2022-08-03T08:46:22.921Z,100594.84
2022-08-03T08:48:53.874Z,100589.94
2022-08-03T08:51:54.658Z,100593.25
2022-08-03T08:54:17.197Z,100584.84
2022-08-03T08:56:45.594Z,100591.75
2022-08-03T08:59:14.342Z,100595.63
2022-08-03T09:01:42.614Z,100579.56
2022-08-03T09:04:11.414Z,100585.81
2022-08-03T09:06:39.290Z,100582.44
2022-08-03T09:10:05.234Z,100577.25
2022-08-03T09:12:35.315Z,100579.22
2022-08-03T09:15:15.776Z,100576.13
2022-08-03T09:17:51.432Z,100565.41
2022-08-03T09:20:22.606Z,100578.50
2022-08-03T09:23:59.140Z,100572.66
2022-08-03T09:26:01.835Z,100581.19
2022-08-03T09:29:00.594Z,100576.94
2022-08-03T09:31:37.159Z,100577.38
2022-08-03T09:34:09.677Z,100576.28
2022-08-03T09:36:49.246Z,100567.28
2022-08-03T09:39:41.582Z,100570.38
2022-08-03T09:42:19.198Z,100569.41
2022-08-03T09:44:53.760Z,100565.84
2022-08-03T09:47:45.160Z,100567.78
2022-08-03T09:50:14.485Z,100567.69
2022-08-03T09:52:52.325Z,100567.53
2022-08-03T09:56:33.926Z,100571.22
2022-08-03T09:58:14.562Z,100559.31
2022-08-03T10:01:07.848Z,100546.72
2022-08-03T10:04:04.264Z,100558.44
2022-08-03T10:06:33.094Z,100556.09
2022-08-03T10:09:11.269Z,100548.03
2022-08-03T10:11:42.153Z,100542.03
2022-08-03T10:14:19.342Z,100540.75
2022-08-03T10:16:50.142Z,100545.78
2022-08-03T10:19:19.480Z,100540.09
2022-08-03T10:21:56.792Z,100536.41
2022-08-03T10:24:29.743Z,100540.75
2022-08-03T10:27:03.923Z,100539.97
2022-08-03T10:29:38.782Z,100522.06
2022-08-03T10:32:16.844Z,100530.78
2022-08-03T10:34:45.851Z,100518.31
2022-08-03T10:37:16.266Z,100516.50
2022-08-03T10:39:54.403Z,100514.72
2022-08-03T10:42:27.331Z,100523.59
2022-08-03T10:45:19.937Z,100517.09
2022-08-03T10:47:50.118Z,100513.78
2022-08-03T10:50:19.042Z,100513.22
2022-08-03T10:52:58.520Z,100509.47
2022-08-03T10:55:52.774Z,100506.34
2022-08-03T10:58:53.104Z,100506.72
2022-08-03T11:01:59.851Z,100506.59
2022-08-03T11:04:30.329Z,100499.47
2022-08-03T11:07:19.767Z,100507.56
2022-08-03T11:09:58.506Z,100499.97
2022-08-03T11:12:32.698Z,100503.00
2022-08-03T11:15:11.311Z,100490.91
2022-08-03T11:17:46.495Z,100492.81
2022-08-03T11:20:46.106Z,100493.69
2022-08-03T11:23:15.896Z,100486.12
2022-08-03T11:26:12.058Z,100477.87
2022-08-03T11:28:41.469Z,100480.91
2022-08-03T11:31:48.771Z,100478.03
2022-08-03T11:34:17.257Z,100479.31
2022-08-03T11:37:26.347Z,100476.25
2022-08-03T11:39:57.333Z,100479.84
2022-08-03T11:42:26.391Z,100470.75
2022-08-03T11:44:59.328Z,100471.09
2022-08-03T11:47:29.790Z,100460.75
2022-08-03T11:50:02.146Z,100470.22
2022-08-03T11:52:39.164Z,100459.84
2022-08-03T11:55:12.103Z,100452.53
2022-08-03T11:59:15.277Z,100446.69
2022-08-03T12:00:35.086Z,100455.56
2022-08-03T12:03:23.609Z,100453.31
2022-08-03T12:06:10.656Z,100444.59
2022-08-03T12:09:17.201Z,100450.25
2022-08-03T12:12:23.231Z,100453.06
2022-08-03T12:15:08.521Z,100437.84
2022-08-03T12:17:59.746Z,100435.41
2022-08-03T12:20:39.361Z,100405.78
2022-08-03T12:23:12.418Z,100444.97
2022-08-03T12:25:42.282Z,100441.91
2022-08-03T12:28:28.222Z,100423.72
2022-08-03T12:31:07.518Z,100439.84
2022-08-03T12:33:59.223Z,100434.75
2022-08-03T12:36:28.532Z,100434.66
2022-08-03T12:38:59.926Z,100423.25
2022-08-03T12:41:30.409Z,100417.94
2022-08-03T12:43:59.122Z,100424.53
2022-08-03T12:46:46.951Z,100417.88
2022-08-03T12:49:18.892Z,100414.19
2022-08-03T12:51:46.954Z,100413.09
2022-08-03T12:54:27.211Z,100412.78
2022-08-03T12:57:00.704Z,100412.97
2022-08-03T12:59:34.809Z,100412.94
2022-08-03T13:02:09.182Z,100406.28
2022-08-03T13:04:38.421Z,100396.87
2022-08-03T13:07:12.748Z,100402.22
2022-08-03T13:09:47.816Z,100400.75
2022-08-03T13:12:21.453Z,100396.13
2022-08-03T13:14:55.051Z,100384.81
2022-08-03T13:17:23.763Z,100381.59
2022-08-03T13:19:52.691Z,100388.53
2022-08-03T13:22:23.277Z,100382.06
2022-08-03T13:24:56.814Z,100385.69
2022-08-03T13:28:05.506Z,100390.34
2022-08-03T13:30:29.991Z,100373.91
2022-08-03T13:33:00.221Z,100366.03
2022-08-03T13:35:28.753Z,100373.97
2022-08-03T13:37:56.840Z,100373.31
2022-08-03T13:40:30.151Z,100369.25
2022-08-03T13:42:58.789Z,100359.37
2022-08-03T13:45:27.754Z,100353.38
2022-08-03T13:47:55.872Z,100359.31
2022-08-03T13:50:24.166Z,100363.44
2022-08-03T13:52:52.131Z,100357.28
2022-08-03T13:55:20.067Z,100356.94
2022-08-03T13:58:03.131Z,100331.47
2022-08-03T14:00:35.309Z,100351.88
2022-08-03T14:03:17.594Z,100358.97
2022-08-03T14:05:45.609Z,100356.09
2022-08-03T14:08:13.942Z,100340.28
2022-08-03T14:10:43.713Z,100350.97
2022-08-03T14:13:16.771Z,100352.63
2022-08-03T14:15:51.019Z,100353.44
2022-08-03T14:18:28.839Z,100346.56
2022-08-03T14:21:06.948Z,100348.50
2022-08-03T14:23:37.930Z,100350.28
2022-08-03T14:26:07.750Z,100348.19
2022-08-03T14:28:36.523Z,100349.47
2022-08-03T14:31:04.741Z,100344.00
2022-08-03T14:33:37.004Z,100344.66
2022-08-03T14:36:05.563Z,100340.81
2022-08-03T14:38:33.619Z,100337.44
2022-08-03T14:41:01.956Z,100336.28
2022-08-03T14:43:34.141Z,100337.25
2022-08-03T14:46:02.685Z,100331.91
2022-08-03T14:50:28.446Z,100322.75
2022-08-03T14:51:19.414Z,100320.22
2022-08-03T14:53:47.379Z,100326.28
2022-08-03T14:56:15.288Z,100327.09
2022-08-03T14:58:43.551Z,100336.56
2022-08-03T15:02:02.544Z,100319.81
2022-08-03T15:03:59.995Z,100304.22
2022-08-03T15:06:27.927Z,100315.34
2022-08-03T15:09:21.447Z,100307.91
2022-08-03T15:11:44.390Z,100310.19
2022-08-03T15:14:13.476Z,100309.69
2022-08-03T15:16:43.344Z,100315.37
2022-08-03T15:20:00.425Z,100313.25
2022-08-03T15:22:00.869Z,100313.41
2022-08-03T15:24:29.699Z,100311.84
2022-08-03T15:26:57.926Z,100313.28
2022-08-03T15:30:06.206Z,100309.56
2022-08-03T15:32:15.642Z,100312.44
2022-08-03T15:34:50.352Z,100306.16
2022-08-03T15:37:20.835Z,100311.50
2022-08-03T15:39:59.158Z,100308.91
2022-08-03T15:42:29.748Z,100311.63
2022-08-03T15:44:57.873Z,100306.50
2022-08-03T15:47:26.294Z,100297.66
2022-08-03T15:49:59.616Z,100295.53
2022-08-03T15:52:27.930Z,100300.84
2022-08-03T15:54:56.337Z,100291.19
2022-08-03T15:57:24.259Z,100303.72
2022-08-03T15:59:55.428Z,100286.97
2022-08-03T16:02:23.717Z,100295.03
2022-08-03T16:04:52.443Z,100294.09
2022-08-03T16:07:40.350Z,100302.78
2022-08-03T16:10:30.789Z,100306.03
2022-08-03T16:13:00.225Z,100307.81
2022-08-03T16:15:28.738Z,100300.06
2022-08-03T16:17:57.482Z,100299.78
2022-08-03T16:20:31.352Z,100297.00
2022-08-03T16:23:10.503Z,100301.81
2022-08-03T16:25:49.348Z,100294.56
2022-08-03T16:28:18.465Z,100294.75
2022-08-03T16:30:47.329Z,100296.03
2022-08-03T16:33:17.296Z,100297.94
2022-08-03T16:35:47.187Z,100296.50
2022-08-03T16:38:19.170Z,100291.50
2022-08-03T16:40:52.017Z,100289.91
2022-08-03T16:43:22.499Z,100292.47
2022-08-03T16:45:51.262Z,100295.31
2022-08-03T16:48:19.678Z,100295.94
2022-08-03T16:50:48.000Z,100297.22
2022-08-03T16:53:17.624Z,100290.94
2022-08-03T16:56:09.841Z,100284.50
2022-08-03T16:58:42.267Z,100283.03
2022-08-03T17:01:24.403Z,100298.16
2022-08-03T17:04:01.919Z,100287.87
2022-08-03T17:06:37.904Z,100299.56
2022-08-03T17:09:15.268Z,100302.13
2022-08-03T17:11:47.990Z,100297.91
2022-08-03T17:14:22.069Z,100301.50
2022-08-03T17:16:54.241Z,100307.41
2022-08-03T17:19:26.545Z,100311.44
2022-08-03T17:21:58.013Z,100306.13
2022-08-03T17:24:33.955Z,100310.22
2022-08-03T17:27:18.553Z,100313.09
2022-08-03T17:30:13.444Z,100301.06
2022-08-03T17:32:57.685Z,100307.66
2022-08-03T17:35:34.344Z,100300.44
2022-08-03T17:38:08.917Z,100319.66
2022-08-03T17:40:43.076Z,100317.06
2022-08-03T17:46:07.132Z,100320.38
2022-08-03T17:48:35.487Z,100325.94
2022-08-03T17:51:17.180Z,100316.72
2022-08-03T17:53:53.809Z,100319.38
2022-08-03T17:56:38.778Z,100313.62
2022-08-03T17:59:50.971Z,100322.59
2022-08-03T18:03:10.093Z,100320.91
2022-08-03T18:08:38.406Z,100326.22
2022-08-03T18:11:14.536Z,100330.75
2022-08-03T18:14:03.062Z,100333.16
2022-08-03T18:16:43.813Z,100337.47
2022-08-03T18:19:13.795Z,100334.41
2022-08-03T18:24:31.480Z,100334.34
2022-08-03T18:27:02.485Z,100334.50
2022-08-03T18:29:37.222Z,100338.72
2022-08-03T18:32:13.464Z,100344.81
2022-08-03T18:37:51.830Z,100347.25
2022-08-03T18:40:22.114Z,100354.44
2022-08-03T18:42:52.814Z,100353.13
2022-08-03T18:45:55.649Z,100355.13
2022-08-03T18:48:33.508Z,100360.13
2022-08-03T18:51:24.123Z,100362.16
2022-08-03T18:54:45.769Z,100369.31
2022-08-03T18:57:03.339Z,100370.44
2022-08-03T19:00:14.146Z,100357.56
2022-08-03T19:02:49.086Z,100372.84
2022-08-03T19:05:23.628Z,100359.94
2022-08-03T19:08:18.027Z,100371.94
2022-08-03T19:10:57.689Z,100373.66
2022-08-03T19:13:44.414Z,100371.56
2022-08-03T19:16:30.808Z,100374.91
2022-08-03T19:19:01.435Z,100365.53
2022-08-03T19:21:30.799Z,100368.78
2022-08-03T19:24:01.741Z,100375.59
2022-08-03T19:26:31.407Z,100381.38
2022-08-03T19:28:59.812Z,100376.28
2022-08-03T19:31:30.770Z,100368.75
2022-08-03T19:34:00.507Z,100376.59
2022-08-03T19:36:29.676Z,100378.53
2022-08-03T19:38:58.502Z,100382.94
2022-08-03T19:41:41.848Z,100384.84
2022-08-03T19:44:19.963Z,100373.03
2022-08-03T19:47:01.568Z,100383.59
2022-08-03T19:50:06.045Z,100384.72
2022-08-03T19:52:31.404Z,100376.37
2022-08-03T19:55:03.831Z,100382.59
2022-08-03T19:57:34.836Z,100389.13
2022-08-03T20:00:09.470Z,100389.13
2022-08-03T20:02:39.819Z,100394.00
2022-08-03T20:05:14.863Z,100396.47
2022-08-03T20:07:48.157Z,100395.16
2022-08-03T20:10:18.253Z,100398.97
2022-08-03T20:12:48.590Z,100396.63
2022-08-03T20:15:18.391Z,100407.72
2022-08-03T20:18:00.274Z,100394.81
2022-08-03T20:20:32.749Z,100403.72
2022-08-03T20:23:07.158Z,100393.75
2022-08-03T20:25:55.779Z,100407.59
2022-08-03T20:28:34.821Z,100401.62
2022-08-03T20:31:02.819Z,100397.03
2022-08-03T20:33:46.065Z,100397.84
2022-08-03T20:39:07.550Z,100402.44
2022-08-03T20:41:36.243Z,100378.91
2022-08-03T20:44:06.003Z,100397.56
2022-08-03T20:46:50.125Z,100404.06
2022-08-03T20:49:23.569Z,100395.41
2022-08-03T20:51:53.641Z,100394.03
2022-08-03T20:54:29.201Z,100395.41
2022-08-03T20:57:03.657Z,100374.88
2022-08-03T20:59:50.179Z,100404.88
2022-08-03T21:02:28.822Z,100408.94
2022-08-03T21:08:06.088Z,100404.88
2022-08-03T21:10:38.096Z,100410.28
2022-08-03T21:12:56.700Z,100325.25
2022-08-03T21:12:58.523Z,100347.12
2022-08-03T21:13:04.167Z,100337.50
2022-08-03T21:13:04.732Z,100312.94
2022-08-03T21:13:07.170Z,100405.12
2022-08-03T21:13:07.969Z,100412.97
2022-08-03T21:13:23.583Z,100414.59
2022-08-03T21:16:11.353Z,100404.59
2022-08-03T21:18:46.144Z,100407.31
2022-08-03T21:21:15.984Z,100395.09
2022-08-03T21:23:49.691Z,100412.97
2022-08-03T21:26:20.155Z,100415.38
2022-08-03T21:28:50.250Z,100414.81
2022-08-03T21:31:24.422Z,100429.41
2022-08-03T21:33:56.598Z,100424.00
2022-08-03T21:36:27.816Z,100431.28
2022-08-03T21:38:58.024Z,100423.41
2022-08-03T21:41:27.975Z,100429.91
2022-08-03T21:43:56.615Z,100430.97
2022-08-03T21:46:26.755Z,100423.66
2022-08-03T21:49:51.741Z,100431.47
2022-08-03T21:51:50.572Z,100423.34
2022-08-03T21:54:20.850Z,100436.34
2022-08-03T21:56:51.263Z,100441.72
2022-08-03T21:59:20.702Z,100435.78
2022-08-03T22:01:58.622Z,100440.06
2022-08-03T22:04:45.841Z,100444.66
2022-08-03T22:07:16.787Z,100427.81
2022-08-03T22:09:50.921Z,100445.66
2022-08-03T22:12:22.845Z,100429.06
2022-08-03T22:15:00.895Z,100442.06
2022-08-03T22:17:55.916Z,100443.94
2022-08-03T22:20:21.793Z,100441.19
2022-08-03T22:22:55.836Z,100434.38
2022-08-03T22:25:38.456Z,100443.28
2022-08-03T22:28:10.759Z,100445.69
2022-08-03T22:30:40.457Z,100443.78
2022-08-03T22:33:11.460Z,100442.69
2022-08-03T22:35:48.193Z,100445.88
2022-08-03T22:38:18.394Z,100412.28
2022-08-03T22:40:49.132Z,100436.69
2022-08-03T22:43:17.545Z,100438.28
2022-08-03T22:46:10.540Z,100448.75
2022-08-03T22:48:36.646Z,100435.78
2022-08-03T22:51:09.659Z,100446.03
2022-08-03T22:53:39.537Z,100450.63
2022-08-03T22:56:08.933Z,100447.63
2022-08-03T22:58:37.893Z,100452.19
2022-08-03T23:01:11.684Z,100430.00
2022-08-03T23:03:59.853Z,100442.69
2022-08-03T23:06:36.845Z,100449.22
2022-08-03T23:09:11.246Z,100453.53
2022-08-03T23:11:45.661Z,100451.59
2022-08-03T23:14:19.287Z,100450.78
2022-08-03T23:16:48.046Z,100449.69
2022-08-03T23:19:25.207Z,100446.72
2022-08-03T23:22:02.210Z,100447.50
2022-08-03T23:24:36.647Z,100440.41
2022-08-03T23:27:05.937Z,100452.22
2022-08-03T23:29:36.620Z,100439.44
2022-08-03T23:32:05.889Z,100442.19
2022-08-03T23:34:53.009Z,100443.50
2022-08-03T23:37:21.222Z,100441.34
2022-08-03T23:39:49.804Z,100440.22
2022-08-03T23:42:21.215Z,100440.72
2022-08-03T23:44:54.642Z,100437.97
2022-08-03T23:47:23.543Z,100440.13
2022-08-03T23:49:52.047Z,100430.88
2022-08-03T23:52:32.382Z,100438.16
2022-08-03T23:55:16.320Z,100447.50
2022-08-03T23:58:11.039Z,100447.44
